Latest Weather Observations for Edithburgh

IDS60801

Issued at 4:35 pm CST Monday 1 September 2014 (issued every 30 minutes, with the page automatically refreshed every 10 minutes)

About weather observations | Map of weather stations | Latest weather observations for SA | Other Formats
Station Details ID: 022046 Name: EDITHBURGH Lat: -35.11 Lon: 137.74 Height: 6.0 m
Data from the previous 72 hours. | See also: Recent months at Edithburgh
Date/Time
CST
Temp
°C
App
Temp
°C
Dew
Point
Rel
Hum
%
Delta-T
°C
Wind Press
QNH
hPa
Press
MSL
hPa
Rain
since 9 am
mm
Dir
 
Spd
km/h
Gust
km/h
Spd
kts
Gust
kts
01/04:30pm 11.8 7.6 9.6 86 1.1 W 22 33 12 18 1015.4 1015.4 0.4
01/04:00pm 12.7 7.2 5.9 63 3.2 WSW 24 35 13 19 1014.9 1014.9 0.2
01/03:30pm 13.4 9.7 7.9 69 2.7 WSW 17 26 9 14 1014.6 1014.6 0.2
01/03:00pm 14.0 9.9 8.6 70 2.7 WSW 20 30 11 16 1014.3 1014.3 0.2
01/02:30pm 14.6 10.2 6.5 58 3.9 WSW 19 32 10 17 1014.3 1014.3 0.2
01/02:00pm 15.5 10.1 6.2 54 4.5 WSW 24 37 13 20 1014.2 1014.2 0.2
01/01:30pm 15.1 9.3 4.3 48 5.0 WSW 24 33 13 18 1014.0 1014.0 0.2
01/01:00pm 15.5 9.7 4.3 47 5.2 WSW 24 37 13 20 1014.2 1014.2 0.2
01/12:30pm 15.6 10.6 6.6 55 4.4 WSW 22 33 12 18 1014.4 1014.4 0.2
01/12:00pm 14.8 9.1 5.0 52 4.6 WSW 24 35 13 19 1014.6 1014.6 0.2
01/11:30am 14.9 9.7 5.7 54 4.4 SW 22 33 12 18 1014.6 1014.6 0.2
01/11:00am 14.8 9.5 6.8 58 3.9 SW 24 32 13 17 1014.6 1014.6 0.2
01/10:30am 14.4 8.8 7.0 61 3.6 SW 26 35 14 19 1014.4 1014.4 0.2
01/10:00am 14.3 9.4 7.1 62 3.5 SW 22 32 12 17 1014.3 1014.3 0.2
01/09:30am 13.4 8.5 6.8 64 3.2 SW 22 32 12 17 1014.1 1014.1 0.2
01/09:00am 12.9 8.8 8.5 74 2.2 SW 20 30 11 16 1014.0 1014.0 7.2
01/08:30am 12.9 11.5 11.0 88 1.0 W 9 13 5 7 1013.7 1013.7 7.2
01/08:00am 11.4 9.8 10.2 92 0.6 WNW 9 15 5 8 1013.5 1013.5 7.2
01/07:30am 11.2 9.8 9.6 90 0.8 W 7 11 4 6 1013.2 1013.2 7.2
01/07:00am 11.2 9.3 9.0 86 1.1 WSW 9 17 5 9 1012.9 1012.9 7.2
01/06:30am 11.0 7.8 8.6 85 1.2 WSW 15 24 8 13 1012.7 1012.7 7.2
01/06:14am 11.5 5.6 8.9 84 1.3 WSW 30 37 16 20 1012.5 1012.5 7.0
01/06:00am 11.6 10.0 10.2 91 0.7 WSW 9 15 5 8 1012.2 1012.2 7.0
01/05:30am 11.2 9.9 10.0 92 0.6 W 7 9 4 5 1012.0 1012.0 7.0
01/05:00am 11.5 9.4 9.9 90 0.8 W 11 17 6 9 1011.8 1011.8 7.0
01/04:30am 11.4 9.7 9.8 90 0.8 W 9 13 5 7 1011.7 1011.7 7.0
01/04:00am 11.6 9.0 10.8 95 0.4 W 15 22 8 12 1011.4 1011.4 6.8
01/03:30am 11.6 10.6 11.0 96 0.3 WNW 7 9 4 5 1011.1 1011.1 4.8
01/03:00am 11.6 10.6 11.0 96 0.3 NW 7 7 4 4 1011.2 1011.2 4.8
01/02:30am 11.6 10.6 11.0 96 0.3 NW 7 9 4 5 1011.6 1011.6 4.8
01/02:00am 11.7 10.4 11.1 96 0.3 WNW 9 9 5 5 1011.8 1011.8 4.6
01/01:30am 12.0 11.1 11.2 95 0.4 WNW 7 9 4 5 1011.8 1011.8 4.4
01/01:00am 12.2 11.4 11.6 96 0.3 W 7 11 4 6 1011.9 1011.9 4.4
01/12:30am 12.3 10.7 11.7 96 0.3 WNW 11 15 6 8 1012.2 1012.2 3.8
01/12:00am 12.5 10.9 11.7 95 0.4 W 11 15 6 8 1011.8 1011.8 3.6
 
Date/Time
CST
Temp
°C
App
Temp
°C
Dew
Point
Rel
Hum
%
Delta-T
°C
Wind Press
QNH
hPa
Press
MSL
hPa
Rain
since 9 am
mm
Dir
 
Spd
km/h
Gust
km/h
Spd
kts
Gust
kts
31/11:30pm 12.6 11.5 11.9 95 0.4 W 9 13 5 7 1011.5 1011.5 3.0
31/11:00pm 12.6 11.0 11.5 93 0.6 W 11 17 6 9 1011.4 1011.4 2.0
31/10:30pm 12.7 10.4 11.6 93 0.6 W 15 24 8 13 1011.4 1011.4 0.8
31/10:00pm 13.1 9.7 12.4 95 0.4 SW 22 33 12 18 1010.8 1010.8 0.4
31/09:30pm 13.5 10.6 12.4 93 0.6 WSW 19 32 10 17 1011.1 1011.1 0.0
31/09:00pm 13.8 11.0 12.5 92 0.7 WSW 19 26 10 14 1011.0 1011.0 0.0
31/08:30pm 14.1 11.2 12.8 92 0.7 WSW 20 32 11 17 1011.0 1011.0 0.0
31/08:00pm 14.5 11.8 12.9 90 0.9 WSW 19 33 10 18 1010.6 1010.6 0.0
31/07:30pm 14.5 12.3 10.9 79 1.9 WSW 13 22 7 12 1010.4 1010.4 0.0
31/07:00pm 14.2 11.4 8.7 69 2.8 WNW 13 20 7 11 1010.8 1010.8 0.0
31/06:30pm 15.2 11.3 7.3 59 3.9 W 17 22 9 12 1010.6 1010.6 0.0
31/06:00pm 14.8 12.1 7.3 61 3.7 NW 11 15 6 8 1010.2 1010.2 0.0
31/05:30pm 15.8 12.4 7.8 59 4.0 WNW 15 19 8 10 1010.2 1010.2 0.0
31/05:00pm 16.3 13.9 8.5 60 4.0 NNW 11 15 6 8 1009.6 1009.6 0.0
31/04:30pm 17.4 13.3 8.0 54 4.8 WNW 19 24 10 13 1009.8 1009.8 0.0
31/04:00pm 18.4 14.2 7.3 48 5.6 WNW 19 28 10 15 1009.4 1009.4 0.0
31/03:30pm 22.1 17.1 6.6 36 7.9 NW 22 33 12 18 1009.7 1009.7 0.0
31/03:00pm 19.8 18.7 10.6 55 5.0 NNW 7 15 4 8 1009.8 1009.8 0.0
31/02:30pm 17.9 15.9 10.2 60 4.1 NNE 11 17 6 9 1009.5 1009.5 0.0
31/02:00pm 20.0 16.4 6.7 42 6.7 N 15 20 8 11 1009.8 1009.8 0.0
31/01:30pm 19.6 15.4 5.9 40 6.8 N 17 24 9 13 1010.4 1010.4 0.0
31/01:00pm 19.2 14.8 4.7 38 7.0 NNW 17 24 9 13 1010.9 1010.9 0.0
31/12:30pm 19.6 14.5 4.1 36 7.4 NNW 20 28 11 15 1011.5 1011.5 0.0
31/12:00pm 20.2 13.5 3.9 34 7.8 NNW 28 39 15 21 1012.1 1012.1 0.0
31/11:30am 21.2 14.3 2.4 29 8.8 NNW 28 41 15 22 1012.5 1012.5 0.0
31/11:00am 22.1 15.3 3.0 28 9.1 N 28 41 15 22 1012.9 1012.9 0.0
31/10:30am 19.7 14.0 3.0 33 7.8 N 22 37 12 20 1013.3 1013.3 0.0
31/10:00am 16.1 11.6 4.3 45 5.5 N 17 22 9 12 1013.6 1013.6 0.0
31/09:30am 14.6 10.9 4.7 51 4.6 N 13 19 7 10 1014.1 1014.1 0.0
31/09:00am 14.4 10.6 5.8 56 4.1 NNE 15 22 8 12 1014.1 1014.1 0.0
31/08:30am 14.2 10.3 5.5 56 4.1 N 15 24 8 13 1014.3 1014.3 0.0
31/08:00am 13.8 9.3 4.2 52 4.4 N 17 26 9 14 1014.1 1014.1 0.0
31/07:30am 13.2 8.8 4.7 56 3.9 N 17 22 9 12 1014.0 1014.0 0.0
31/07:00am 12.5 9.1 4.1 56 3.8 N 11 15 6 8 1014.7 1014.7 0.0
31/06:30am 12.9 9.4 5.4 60 3.5 N 13 17 7 9 1014.5 1014.5 0.0
31/06:00am 12.8 9.5 6.5 65 3.0 N 13 19 7 10 1014.2 1014.2 0.0
31/05:30am 12.4 9.1 6.3 66 2.9 N 13 19 7 10 1014.3 1014.3 0.0
31/05:00am 12.4 9.5 6.5 67 2.8 N 11 15 6 8 1014.4 1014.4 0.0
31/04:30am 9.8 6.9 4.4 69 2.4 N 9 13 5 7 1014.2 1014.2 0.0
31/04:00am 11.2 8.2 4.3 62 3.1 N 9 15 5 8 1014.1 1014.1 0.0
31/03:30am 12.6 9.3 4.7 58 3.6 N 11 17 6 9 1014.1 1014.1 0.0
31/03:00am 13.4 9.5 5.5 59 3.7 N 15 22 8 12 1014.3 1014.3 0.0
31/02:30am 13.4 9.8 6.8 64 3.2 NNE 15 22 8 12 1014.4 1014.4 0.0
31/02:00am 12.8 9.6 6.7 66 2.9 N 13 17 7 9 1015.0 1015.0 0.0
31/01:30am 13.1 10.5 7.6 69 2.7 NNE 11 17 6 9 1015.3 1015.3 0.0
31/01:00am 13.2 11.3 9.0 75 2.1 NNE 9 15 5 8 1015.7 1015.7 0.0
31/12:30am 13.5 11.0 8.0 69 2.7 NNE 11 15 6 8 1015.9 1015.9 0.0
31/12:00am 13.7 11.6 8.3 70 2.7 NNE 9 15 5 8 1016.0 1016.0 0.0
 
Date/Time
CST
Temp
°C
App
Temp
°C
Dew
Point
Rel
Hum
%
Delta-T
°C
Wind Press
QNH
hPa
Press
MSL
hPa
Rain
since 9 am
mm
Dir
 
Spd
km/h
Gust
km/h
Spd
kts
Gust
kts
30/11:30pm 14.2 11.5 7.2 63 3.4 NNE 11 17 6 9 1016.3 1016.3 0.0
30/11:00pm 14.9 11.4 5.6 53 4.4 N 13 19 7 10 1016.5 1016.5 0.0
30/10:30pm 15.0 11.2 4.1 48 5.0 N 13 17 7 9 1016.7 1016.7 0.0
30/10:00pm 14.4 10.6 4.1 50 4.7 N 13 19 7 10 1017.0 1017.0 0.0
30/09:30pm 12.1 9.1 5.9 66 2.9 N 11 15 6 8 1017.5 1017.6 0.0
30/09:00pm 11.9 9.3 6.1 67 2.7 N 9 11 5 6 1017.8 1017.9 0.0
30/08:30pm 12.3 10.1 8.0 75 2.1 N 9 11 5 6 1017.8 1017.9 0.0
30/08:00pm 13.2 12.2 11.1 87 1.1 N 7 9 4 5 1017.7 1017.8 0.0
30/07:30pm 14.8 14.0 11.6 81 1.7 NNE 7 13 4 7 1017.7 1017.8 0.0
30/07:00pm 15.1 13.8 11.4 78 2.0 NNE 9 13 5 7 1017.6 1017.7 0.0
30/06:30pm 15.4 14.1 11.1 75 2.3 NNE 9 15 5 8 1017.8 1017.9 0.0
30/06:00pm 15.4 14.1 11.1 75 2.3 NNE 9 13 5 7 1017.8 1017.9 0.0
30/05:30pm 15.9 14.2 11.2 73 2.5 NNE 11 15 6 8 1017.9 1018.0 0.0
30/05:00pm 16.4 14.6 11.0 70 2.9 NNE 11 17 6 9 1017.9 1018.0 0.0
30/04:30pm 17.2 15.9 11.1 67 3.3 NNE 9 15 5 8 1018.0 1018.1 0.0
30/04:00pm 17.9 16.0 10.4 61 4.0 NE 11 15 6 8 1018.1 1018.2 0.0
30/03:30pm 19.5 17.5 10.2 55 5.0 NE 11 17 6 9 1018.4 1018.5 0.0
30/03:00pm 22.6 18.1 4.1 30 9.0 NNW 17 24 9 13 1018.6 1018.7 0.0
30/02:30pm 23.3 16.9 3.1 26 9.7 NNW 26 33 14 18 1019.0 1019.1 0.0
30/02:00pm 23.3 18.5 4.4 29 9.3 NNW 19 26 10 14 1019.3 1019.4 0.0
30/01:30pm 19.2 17.1 11.1 59 4.4 NE 13 19 7 10 1019.7 1019.8 0.0
30/01:00pm 18.4 16.5 11.8 65 3.6 NE 13 19 7 10 1020.3 1020.3 0.0
30/12:30pm 17.8 16.5 12.4 70 3.0 NE 11 17 6 9 1020.9 1020.9 0.0
30/12:00pm 17.1 15.8 12.4 74 2.6 NNE 11 19 6 10 1021.4 1021.4 0.0
30/11:30am 17.4 15.7 12.3 72 2.8 NNE 13 19 7 10 1021.8 1021.8 0.0
30/11:00am 17.4 16.3 12.1 71 2.9 NNE 9 15 5 8 1022.2 1022.2 0.0
30/10:30am 16.9 14.9 11.5 70 2.9 NNE 13 20 7 11 1022.4 1022.4 0.0
30/10:00am 15.7 13.6 11.2 74 2.4 NNE 13 17 7 9 1022.8 1022.8 0.0
30/09:30am 15.0 13.5 12.0 82 1.6 NNE 11 17 6 9 1022.9 1022.9 0.0
30/09:00am 15.4 13.9 11.9 79 1.9 NNE 11 20 6 11 1022.8 1022.8 0.2
30/08:30am 15.0 12.9 11.0 77 2.1 NNE 13 20 7 11 1022.9 1022.9 0.2
30/08:00am 14.5 12.9 11.7 83 1.5 NNE 11 17 6 9 1022.6 1022.6 0.2
30/07:30am 13.8 12.2 11.5 86 1.2 N 11 17 6 9 1022.6 1022.6 0.2
30/07:00am 13.0 11.4 11.5 91 0.8 NNE 11 15 6 8 1022.5 1022.5 0.2
30/06:30am 12.9 10.9 11.6 92 0.7 NNE 13 19 7 10 1022.4 1022.4 0.2
30/06:00am 11.4 9.9 9.0 85 1.2 NNE 7 11 4 6 1022.2 1022.2 0.2
30/05:30am 9.1 6.5 6.3 83 1.3 N 9 13 5 7 1022.6 1022.6 0.2
30/05:00am 7.9 4.9 5.9 87 0.9 NNW 11 17 6 9 1022.8 1022.8 0.2
30/04:30am 9.4 7.6 8.1 92 0.6 NW 7 11 4 6 1022.7 1022.7 0.2
30/04:00am 13.0 11.3 11.3 89 0.9 NE 11 15 6 8 1022.5 1022.5 0.2
30/03:30am 12.5 10.2 10.6 88 1.0 NE 13 15 7 8 1022.5 1022.5 0.2
30/03:00am 13.0 11.4 10.3 84 1.4 NE 9 13 5 7 1022.9 1022.9 0.2
30/02:30am 11.7 10.1 8.9 83 1.4 NNE 7 11 4 6 1023.2 1023.2 0.2
30/02:00am 10.3 8.5 8.0 86 1.1 N 7 9 4 5 1023.2 1023.2 0.2
30/01:30am 12.5 11.0 9.3 81 1.6 NNE 7 9 4 5 1023.4 1023.4 0.2
30/01:00am 12.3 11.0 9.1 81 1.6 NNE 6 7 3 4 1023.6 1023.6 0.2
30/12:30am 14.0 12.6 9.5 74 2.3 NE 7 7 4 4 1023.8 1023.8 0.2
30/12:00am 15.1 12.7 8.8 66 3.2 ENE 11 19 6 10 1024.0 1024.0 0.2
 
Date/Time
CST
Temp
°C
App
Temp
°C
Dew
Point
Rel
Hum
%
Delta-T
°C
Wind Press
QNH
hPa
Press
MSL
hPa
Rain
since 9 am
mm
Dir
 
Spd
km/h
Gust
km/h
Spd
kts
Gust
kts
29/11:30pm 14.3 12.1 9.2 71 2.6 E 11 17 6 9 1024.1 1024.1 0.2
29/11:00pm 14.4 11.6 8.6 68 2.9 E 13 17 7 9 1024.2 1024.2 0.2
29/10:30pm 14.4 11.9 8.4 67 3.0 E 11 15 6 8 1024.4 1024.4 0.2
29/10:00pm 14.7 11.7 7.6 62 3.5 E 13 15 7 8 1024.6 1024.6 0.2
29/09:30pm 14.5 11.5 7.6 63 3.4 E 13 15 7 8 1024.7 1024.7 0.2
29/09:00pm 14.4 11.9 8.2 66 3.1 E 11 13 6 7 1024.8 1024.8 0.2
29/08:30pm 13.5 10.3 8.5 72 2.5 E 15 17 8 9 1024.9 1024.9 0.2
29/08:00pm 13.1 11.0 9.6 79 1.8 E 11 13 6 7 1024.9 1024.9 0.2
29/07:30pm 10.4 8.8 8.1 86 1.1 ENE 6 9 3 5 1024.8 1024.8 0.2
29/07:00pm 13.0 13.2 10.7 86 1.2 CALM 0 0 0 0 1024.7 1024.7 0.2
29/06:30pm 13.1 12.2 10.8 86 1.2 E 6 7 3 4 1024.6 1024.6 0.2
29/06:00pm 14.1 14.1 11.3 83 1.5 SE 2 4 1 2 1024.7 1024.7 0.2
29/05:30pm 15.2 14.7 10.8 75 2.3 ESE 4 6 2 3 1024.8 1024.8 0.2
29/05:00pm 16.7 15.6 10.0 64 3.5 E 6 7 3 4 1024.9 1024.9 0.2

Other Formats:

Comma delimited format used in spreadsheet applications
http://www.bom.gov.au/fwo/IDS60801/IDS60801.94809.axf

JavaScript Object Notation format (JSON) in row-major order
http://www.bom.gov.au/fwo/IDS60801/IDS60801.94809.json